createdAt,value
2023-04-13T00:00:38.409Z,98243.38
2023-04-13T00:03:08.722Z,98239.06
2023-04-13T00:05:41.296Z,98233.91
2023-04-13T00:08:12.993Z,98245.63
2023-04-13T00:10:42.871Z,98238.72
2023-04-13T00:13:26.492Z,98244.22
2023-04-13T00:15:56.898Z,98233.53
2023-04-13T00:18:26.414Z,98241.34
2023-04-13T00:21:08.816Z,98240.09
2023-04-13T00:23:46.824Z,98240.06
2023-04-13T00:26:20.765Z,98246.22
2023-04-13T00:29:07.563Z,98238.03
2023-04-13T00:31:46.330Z,98238.75
2023-04-13T00:34:14.645Z,98234.06
2023-04-13T00:36:49.979Z,98232.19
2023-04-13T00:39:24.862Z,98225.66
2023-04-13T00:41:52.989Z,98222.47
2023-04-13T00:44:23.466Z,98225.50
2023-04-13T00:46:54.721Z,98232.19
2023-04-13T00:49:26.034Z,98223.16
2023-04-13T00:51:56.907Z,98242.78
2023-04-13T00:54:26.115Z,98260.19
2023-04-13T00:57:06.552Z,98237.88
2023-04-13T00:59:39.177Z,98234.34
2023-04-13T01:02:08.256Z,98230.72
2023-04-13T01:04:42.084Z,98243.63
2023-04-13T01:07:22.774Z,98252.53
2023-04-13T01:09:58.214Z,98248.72
2023-04-13T01:12:31.793Z,98247.66
2023-04-13T01:15:15.875Z,98246.00
2023-04-13T01:17:48.806Z,98245.22
2023-04-13T01:20:19.013Z,98244.19
2023-04-13T01:22:55.699Z,98245.28
2023-04-13T01:25:44.974Z,98254.91
2023-04-13T01:28:33.039Z,98259.00
2023-04-13T01:31:08.558Z,98253.53
2023-04-13T01:33:41.179Z,98264.34
2023-04-13T01:36:11.787Z,98265.56
2023-04-13T01:38:41.107Z,98267.25
2023-04-13T01:41:14.277Z,98272.00
2023-04-13T01:44:03.333Z,98304.97
2023-04-13T01:46:39.947Z,98294.44
2023-04-13T01:49:27.508Z,98311.50
2023-04-13T01:52:36.894Z,98299.00
2023-04-13T01:55:12.406Z,98294.34
2023-04-13T01:57:47.463Z,98293.16
2023-04-13T02:00:38.743Z,98293.69
2023-04-13T02:03:13.591Z,98290.56
2023-04-13T02:05:43.415Z,98284.81
2023-04-13T02:08:15.253Z,98286.75
2023-04-13T02:10:49.222Z,98280.59
2023-04-13T02:13:19.727Z,98280.22
2023-04-13T02:15:56.662Z,98281.84
2023-04-13T02:18:31.524Z,98277.25
2023-04-13T02:21:08.506Z,98274.44
2023-04-13T02:23:40.629Z,98284.75
2023-04-13T02:26:19.523Z,98284.59
2023-04-13T02:28:58.375Z,98279.75
2023-04-13T02:31:31.917Z,98274.84
2023-04-13T02:34:02.269Z,98281.38
2023-04-13T02:36:33.473Z,98279.88
2023-04-13T02:39:11.254Z,98280.16
2023-04-13T02:41:43.559Z,98281.59
2023-04-13T02:44:18.869Z,98280.09
2023-04-13T02:47:16.025Z,98283.81
2023-04-13T02:49:46.128Z,98288.28
2023-04-13T02:52:29.428Z,98282.44
2023-04-13T02:55:06.790Z,98282.28
2023-04-13T02:57:49.993Z,98282.25
2023-04-13T03:00:29.612Z,98281.44
2023-04-13T03:03:09.058Z,98294.47
2023-04-13T03:05:50.847Z,98293.34
2023-04-13T03:08:24.142Z,98307.88
2023-04-13T03:11:20.416Z,98311.69
2023-04-13T03:13:59.645Z,98316.06
2023-04-13T03:16:32.073Z,98315.81
2023-04-13T03:19:07.560Z,98320.66
2023-04-13T03:21:39.827Z,98316.00
2023-04-13T03:24:17.786Z,98324.25
2023-04-13T03:26:48.255Z,98326.59
2023-04-13T03:29:26.292Z,98321.75
2023-04-13T03:32:03.422Z,98324.41
2023-04-13T03:34:44.382Z,98339.41
2023-04-13T03:37:23.300Z,98328.28
2023-04-13T03:39:54.093Z,98331.94
2023-04-13T03:42:31.215Z,98338.00
2023-04-13T03:45:07.237Z,98342.59
2023-04-13T03:47:39.286Z,98353.28
2023-04-13T03:50:20.563Z,98344.50
2023-04-13T03:53:05.579Z,98356.34
2023-04-13T03:55:34.156Z,98349.81
2023-04-13T03:58:13.562Z,98355.34
2023-04-13T04:00:46.456Z,98358.81
2023-04-13T04:03:27.935Z,98360.03
2023-04-13T04:06:31.320Z,98356.56
2023-04-13T04:09:18.391Z,98364.38
2023-04-13T04:12:15.731Z,98361.53
2023-04-13T04:14:54.884Z,98371.41
2023-04-13T04:17:34.560Z,98370.66
2023-04-13T04:20:11.758Z,98370.09
2023-04-13T04:22:47.508Z,98369.72
2023-04-13T04:25:27.775Z,98365.03
2023-04-13T04:27:57.800Z,98362.31
2023-04-13T04:30:29.822Z,98373.66
2023-04-13T04:32:59.850Z,98378.53
2023-04-13T04:35:41.416Z,98370.84
2023-04-13T04:38:17.340Z,98385.25
2023-04-13T04:40:49.768Z,98388.03
2023-04-13T04:43:24.026Z,98385.69
2023-04-13T04:46:05.607Z,98384.00
2023-04-13T04:48:42.235Z,98388.69
2023-04-13T04:51:16.276Z,98379.28
2023-04-13T04:53:59.735Z,98385.13
2023-04-13T04:56:31.056Z,98387.63
2023-04-13T04:59:01.823Z,98384.97
2023-04-13T05:01:46.071Z,98391.81
2023-04-13T05:04:17.251Z,98407.25
2023-04-13T05:07:02.590Z,98406.81
2023-04-13T05:09:41.725Z,98420.84
2023-04-13T05:12:19.663Z,98424.41
2023-04-13T05:14:49.744Z,98423.94
2023-04-13T05:17:24.093Z,98432.31
2023-04-13T05:19:55.319Z,98434.69
2023-04-13T05:22:53.254Z,98449.19
2023-04-13T05:25:27.027Z,98440.16
2023-04-13T05:28:05.734Z,98437.97
2023-04-13T05:30:40.206Z,98446.38
2023-04-13T05:33:09.329Z,98449.38
2023-04-13T05:35:42.915Z,98448.72
2023-04-13T05:38:14.645Z,98446.38
2023-04-13T05:40:47.098Z,98450.06
2023-04-13T05:43:27.065Z,98445.53
2023-04-13T05:45:57.546Z,98452.09
2023-04-13T05:48:30.500Z,98451.91
2023-04-13T05:51:04.332Z,98455.22
2023-04-13T05:53:41.802Z,98457.00
2023-04-13T05:56:11.918Z,98465.06
2023-04-13T05:58:45.579Z,98473.91
2023-04-13T06:01:35.149Z,98468.06
2023-04-13T06:04:09.571Z,98472.91
2023-04-13T06:06:48.137Z,98474.28
2023-04-13T06:09:25.680Z,98482.63
2023-04-13T06:12:06.927Z,98478.56
2023-04-13T06:14:38.118Z,98495.41
2023-04-13T06:17:12.289Z,98485.41
2023-04-13T06:19:43.687Z,98494.13
2023-04-13T06:22:21.473Z,98488.59
2023-04-13T06:25:00.483Z,98489.63
2023-04-13T06:27:43.566Z,98500.09
2023-04-13T06:30:13.316Z,98496.63
2023-04-13T06:32:42.963Z,98492.09
2023-04-13T06:35:14.884Z,98496.63
2023-04-13T06:37:49.676Z,98497.44
2023-04-13T06:40:37.016Z,98500.13
2023-04-13T06:43:29.072Z,98502.59
2023-04-13T06:46:25.988Z,98497.41
2023-04-13T06:49:05.218Z,98511.13
2023-04-13T06:51:38.196Z,98517.63
2023-04-13T06:54:10.520Z,98521.63
2023-04-13T06:56:48.474Z,98520.44
2023-04-13T06:59:21.354Z,98516.94
2023-04-13T07:01:53.398Z,98529.94
2023-04-13T07:04:33.196Z,98536.09
2023-04-13T07:07:06.996Z,98526.44
2023-04-13T07:09:36.905Z,98528.09
2023-04-13T07:12:09.739Z,98530.13
2023-04-13T07:14:46.412Z,98529.78
2023-04-13T07:17:20.135Z,98534.13
2023-04-13T07:19:57.344Z,98546.13
2023-04-13T07:22:27.687Z,98543.78
2023-04-13T07:25:01.286Z,98541.28
2023-04-13T07:27:33.653Z,98537.97
2023-04-13T07:30:24.011Z,98546.44
2023-04-13T07:32:55.509Z,98549.25
2023-04-13T07:35:30.168Z,98539.44
2023-04-13T07:38:02.191Z,98544.09
2023-04-13T07:40:33.174Z,98557.94
2023-04-13T07:43:07.146Z,98558.59
2023-04-13T07:45:44.613Z,98557.63
2023-04-13T07:48:17.975Z,98553.44
2023-04-13T07:50:48.605Z,98555.44
2023-04-13T07:53:30.165Z,98556.75
2023-04-13T07:56:00.030Z,98557.56
2023-04-13T07:58:30.940Z,98561.25
2023-04-13T08:01:07.911Z,98564.59
2023-04-13T08:03:41.317Z,98570.75
2023-04-13T08:06:21.211Z,98579.19
2023-04-13T08:08:53.584Z,98569.72
2023-04-13T08:11:27.103Z,98577.19
2023-04-13T08:14:07.507Z,98575.03
2023-04-13T08:16:47.849Z,98577.13
2023-04-13T08:19:17.608Z,98580.28
2023-04-13T08:21:56.079Z,98571.38
2023-04-13T08:24:25.623Z,98585.31
2023-04-13T08:27:01.094Z,98573.41
2023-04-13T08:29:29.564Z,98583.06
2023-04-13T08:32:16.864Z,98575.72
2023-04-13T08:34:48.898Z,98569.09
2023-04-13T08:37:20.917Z,98562.22
2023-04-13T08:39:56.899Z,98566.38
2023-04-13T08:42:28.993Z,98575.38
2023-04-13T08:45:07.789Z,98576.06
2023-04-13T08:47:47.058Z,98571.56
2023-04-13T08:50:18.252Z,98567.75
2023-04-13T08:52:54.663Z,98576.22
2023-04-13T08:55:26.448Z,98576.59
2023-04-13T08:58:06.781Z,98575.72
2023-04-13T09:00:39.988Z,98584.44
2023-04-13T09:03:14.525Z,98581.91
2023-04-13T09:05:59.741Z,98571.78
2023-04-13T09:08:38.664Z,98583.91
2023-04-13T09:11:11.716Z,98586.63
2023-04-13T09:13:41.640Z,98568.19
2023-04-13T09:16:12.131Z,98587.56
2023-04-13T09:18:58.305Z,98570.41
2023-04-13T09:21:42.307Z,98574.69
2023-04-13T09:24:13.016Z,98577.53
2023-04-13T09:26:43.542Z,98564.75
2023-04-13T09:29:23.954Z,98565.13
2023-04-13T09:31:54.980Z,98562.09
2023-04-13T09:34:31.692Z,98556.09
2023-04-13T09:37:08.064Z,98561.13
2023-04-13T09:39:44.531Z,98569.97
2023-04-13T09:42:18.247Z,98562.63
2023-04-13T09:45:02.352Z,98569.28
2023-04-13T09:47:38.436Z,98573.13
2023-04-13T09:50:30.232Z,98567.47
2023-04-13T09:53:13.259Z,98568.25
2023-04-13T09:55:47.503Z,98572.75
2023-04-13T09:58:25.319Z,98567.25
2023-04-13T10:00:55.371Z,98576.75
2023-04-13T10:03:33.926Z,98567.78
2023-04-13T10:06:08.200Z,98573.47
2023-04-13T10:08:41.992Z,98574.75
2023-04-13T10:11:19.459Z,98571.28
2023-04-13T10:13:55.975Z,98550.78
2023-04-13T10:16:46.235Z,98555.41
2023-04-13T10:19:20.782Z,98567.75
2023-04-13T10:21:55.775Z,98553.06
2023-04-13T10:24:28.939Z,98569.59
2023-04-13T10:27:01.898Z,98571.94
2023-04-13T10:29:32.797Z,98564.78
2023-04-13T10:32:05.198Z,98571.78
2023-04-13T10:34:36.557Z,98565.59
2023-04-13T10:37:29.907Z,98568.13
2023-04-13T10:40:10.038Z,98558.72
2023-04-13T10:45:31.962Z,98544.44
2023-04-13T10:48:01.023Z,98546.16
2023-04-13T10:50:30.434Z,98546.00
2023-04-13T10:53:08.258Z,98555.69
2023-04-13T10:55:42.885Z,98554.75
2023-04-13T10:58:21.930Z,98553.25
2023-04-13T11:00:52.334Z,98550.78
2023-04-13T11:03:20.878Z,98556.09
2023-04-13T11:06:03.117Z,98550.94
2023-04-13T11:11:26.105Z,98540.94
2023-04-13T11:13:55.329Z,98541.28
2023-04-13T11:16:25.885Z,98546.97
2023-04-13T11:19:06.117Z,98550.63
2023-04-13T11:21:41.344Z,98537.13
2023-04-13T11:24:18.877Z,98536.59
2023-04-13T11:26:56.725Z,98539.13
2023-04-13T11:29:27.334Z,98533.09
2023-04-13T11:31:58.373Z,98527.91
2023-04-13T11:34:29.175Z,98532.94
2023-04-13T11:37:09.355Z,98534.28
2023-04-13T11:39:52.491Z,98541.47
2023-04-13T11:42:23.219Z,98543.94
2023-04-13T11:44:55.113Z,98543.47
2023-04-13T11:47:23.931Z,98538.28
2023-04-13T11:49:53.507Z,98550.28
2023-04-13T11:52:24.114Z,98557.44
2023-04-13T11:55:04.769Z,98546.41
2023-04-13T11:57:53.562Z,98548.13
2023-04-13T12:00:31.207Z,98566.09
2023-04-13T12:03:15.282Z,98552.78
2023-04-13T12:06:06.800Z,98553.75
2023-04-13T12:08:38.321Z,98556.22
2023-04-13T12:14:08.867Z,98560.09
2023-04-13T12:19:20.722Z,98556.72
2023-04-13T12:21:59.522Z,98565.28
2023-04-13T12:24:39.779Z,98562.00
2023-04-13T12:27:19.308Z,98566.41
2023-04-13T12:29:49.009Z,98563.66
2023-04-13T12:32:21.195Z,98560.03
2023-04-13T12:34:50.074Z,98558.19
2023-04-13T12:37:20.707Z,98566.22
2023-04-13T12:39:51.131Z,98570.94
2023-04-13T12:42:21.809Z,98568.94
2023-04-13T12:44:55.291Z,98565.09
2023-04-13T12:47:26.230Z,98556.63
2023-04-13T12:49:59.490Z,98560.03
2023-04-13T12:52:34.925Z,98565.88
2023-04-13T12:55:05.666Z,98562.06
2023-04-13T12:57:40.188Z,98570.22
2023-04-13T13:00:12.183Z,98567.09
2023-04-13T13:02:41.552Z,98577.75
2023-04-13T13:05:13.363Z,98574.13
2023-04-13T13:07:42.627Z,98581.94
2023-04-13T13:10:29.035Z,98573.91
2023-04-13T13:13:15.998Z,98566.75
2023-04-13T13:15:46.591Z,98576.53
2023-04-13T13:18:20.614Z,98571.47
2023-04-13T13:20:55.646Z,98572.44
2023-04-13T13:23:29.737Z,98561.94
2023-04-13T13:28:50.829Z,98555.06
2023-04-13T13:31:21.252Z,98550.59
2023-04-13T13:33:54.556Z,98563.13
2023-04-13T13:36:22.891Z,98564.72
2023-04-13T13:38:54.529Z,98581.03
2023-04-13T13:41:23.633Z,98562.72
2023-04-13T13:44:06.172Z,98560.78
2023-04-13T13:46:35.766Z,98548.53
2023-04-13T13:49:17.908Z,98570.94
2023-04-13T13:52:10.358Z,98573.88
2023-04-13T13:54:51.892Z,98578.69
2023-04-13T13:57:23.619Z,98590.38
2023-04-13T13:59:55.762Z,98581.91
2023-04-13T14:02:28.437Z,98569.56
2023-04-13T14:05:06.483Z,98565.56
2023-04-13T14:07:35.764Z,98564.25
2023-04-13T14:10:06.716Z,98560.09
2023-04-13T14:12:38.486Z,98553.91
2023-04-13T14:15:12.881Z,98550.03
2023-04-13T14:18:02.500Z,98549.59
2023-04-13T14:20:45.981Z,98550.94
2023-04-13T14:23:22.754Z,98554.63
2023-04-13T14:25:53.436Z,98554.94
2023-04-13T14:28:31.062Z,98575.63
2023-04-13T14:31:10.099Z,98551.78
2023-04-13T14:33:44.567Z,98566.47
2023-04-13T14:36:16.246Z,98557.09
2023-04-13T14:38:51.650Z,98558.28
2023-04-13T14:41:30.498Z,98555.13
2023-04-13T14:44:02.523Z,98558.28
2023-04-13T14:46:35.066Z,98538.97
2023-04-13T14:49:04.274Z,98556.63
2023-04-13T14:51:35.471Z,98562.44
2023-04-13T14:54:08.308Z,98554.44
2023-04-13T14:56:44.524Z,98553.75
2023-04-13T14:59:16.417Z,98559.25
2023-04-13T15:02:08.055Z,98557.56
2023-04-13T15:04:42.679Z,98557.59
2023-04-13T15:07:20.932Z,98552.78
2023-04-13T15:09:50.186Z,98563.06
2023-04-13T15:12:21.532Z,98560.34
2023-04-13T15:14:50.532Z,98553.25
2023-04-13T15:17:31.933Z,98562.88
2023-04-13T15:20:07.449Z,98569.09
2023-04-13T15:22:37.278Z,98571.41
2023-04-13T15:25:07.433Z,98584.09
2023-04-13T15:27:38.447Z,98583.41
2023-04-13T15:30:11.635Z,98583.56
2023-04-13T15:33:02.509Z,98580.56
2023-04-13T15:35:34.497Z,98582.06
2023-04-13T15:38:04.460Z,98573.97
2023-04-13T15:40:35.394Z,98579.28
2023-04-13T15:43:11.736Z,98577.59
2023-04-13T15:45:50.495Z,98568.06
2023-04-13T15:48:34.144Z,98569.09
2023-04-13T15:51:10.932Z,98567.78
2023-04-13T15:53:45.077Z,98573.28
2023-04-13T15:56:17.956Z,98565.31
2023-04-13T15:58:49.409Z,98564.94
2023-04-13T16:01:17.941Z,98557.28
2023-04-13T16:04:04.054Z,98570.59
2023-04-13T16:06:38.609Z,98572.06
2023-04-13T16:09:06.596Z,98565.72
2023-04-13T16:11:38.623Z,98564.41
2023-04-13T16:14:10.397Z,98554.22
2023-04-13T16:16:57.329Z,98564.25
2023-04-13T16:19:43.985Z,98551.06
2023-04-13T16:22:13.708Z,98545.19
2023-04-13T16:24:51.908Z,98545.66
2023-04-13T16:27:21.092Z,98539.91
2023-04-13T16:29:59.460Z,98538.50
2023-04-13T16:32:30.274Z,98549.84
2023-04-13T16:35:16.062Z,98542.44
2023-04-13T16:37:45.296Z,98549.44
2023-04-13T16:40:18.884Z,98540.41
2023-04-13T16:42:50.953Z,98557.75
2023-04-13T16:45:22.213Z,98562.75
2023-04-13T16:47:51.575Z,98568.03
2023-04-13T16:50:33.536Z,98581.41
2023-04-13T16:53:11.744Z,98580.38
2023-04-13T16:55:40.532Z,98591.69
2023-04-13T16:58:15.913Z,98585.63
2023-04-13T17:01:16.251Z,98589.13
2023-04-13T17:03:50.051Z,98594.28
2023-04-13T17:06:25.973Z,98587.25
2023-04-13T17:08:58.062Z,98588.47
2023-04-13T17:11:39.153Z,98575.25
2023-04-13T17:14:08.913Z,98586.88
2023-04-13T17:16:40.714Z,98574.81
2023-04-13T17:19:19.492Z,98580.03
2023-04-13T17:22:04.045Z,98580.16
2023-04-13T17:24:41.750Z,98584.84
2023-04-13T17:27:12.688Z,98569.66
2023-04-13T17:29:45.365Z,98579.44
2023-04-13T17:32:15.693Z,98571.22
2023-04-13T17:34:59.782Z,98583.78
2023-04-13T17:37:34.527Z,98594.28
2023-04-13T17:40:04.481Z,98592.13
2023-04-13T17:42:47.672Z,98597.06
2023-04-13T17:45:30.322Z,98601.50
2023-04-13T17:48:01.614Z,98589.44
2023-04-13T17:50:42.311Z,98592.56
2023-04-13T17:53:12.267Z,98604.63
2023-04-13T17:55:41.899Z,98598.00
2023-04-13T17:58:15.582Z,98594.38
2023-04-13T18:00:57.808Z,98588.66
2023-04-13T18:03:29.213Z,98596.56
2023-04-13T18:06:01.228Z,98601.84
2023-04-13T18:08:48.521Z,98590.00
2023-04-13T18:11:20.650Z,98586.53
2023-04-13T18:14:02.797Z,98589.09
2023-04-13T18:16:33.661Z,98593.16
2023-04-13T18:19:08.753Z,98607.28
2023-04-13T18:21:48.956Z,98610.41
2023-04-13T18:24:21.464Z,98612.84
2023-04-13T18:27:03.463Z,98614.50
2023-04-13T18:29:34.950Z,98621.03
2023-04-13T18:32:09.757Z,98625.47
2023-04-13T18:34:43.127Z,98622.44
2023-04-13T18:37:13.230Z,98610.53
2023-04-13T18:39:52.352Z,98614.75
2023-04-13T18:42:23.860Z,98620.94
2023-04-13T18:44:52.778Z,98613.09
2023-04-13T18:47:27.948Z,98609.63
2023-04-13T18:49:59.351Z,98612.84
2023-04-13T18:52:31.105Z,98602.75
2023-04-13T18:55:05.671Z,98613.47
2023-04-13T18:57:43.010Z,98613.81
2023-04-13T19:00:17.387Z,98620.44
2023-04-13T19:02:55.505Z,98611.38
2023-04-13T19:05:24.654Z,98603.84
2023-04-13T19:07:59.901Z,98599.66
2023-04-13T19:10:47.417Z,98595.50
2023-04-13T19:13:19.440Z,98601.16
2023-04-13T19:15:57.807Z,98584.38
2023-04-13T19:18:45.765Z,98570.41
2023-04-13T19:21:24.365Z,98571.59
2023-04-13T19:24:01.713Z,98561.66
2023-04-13T19:29:40.643Z,98582.13
2023-04-13T19:32:18.029Z,98588.59
2023-04-13T19:34:51.649Z,98595.56
2023-04-13T19:37:29.039Z,98605.84
2023-04-13T19:40:07.262Z,98598.41
2023-04-13T19:42:46.635Z,98596.13
2023-04-13T19:45:33.338Z,98587.72
2023-04-13T19:48:07.799Z,98578.81
2023-04-13T19:50:48.185Z,98576.25
2023-04-13T19:53:20.498Z,98576.78
2023-04-13T19:55:52.575Z,98584.75
2023-04-13T19:58:34.856Z,98574.13
2023-04-13T20:01:08.698Z,98561.19
2023-04-13T20:03:46.246Z,98567.22
2023-04-13T20:06:24.180Z,98562.44
2023-04-13T20:08:57.866Z,98561.53
2023-04-13T20:11:32.517Z,98559.25
2023-04-13T20:14:18.382Z,98554.00
2023-04-13T20:16:58.215Z,98542.50
2023-04-13T20:19:29.925Z,98541.56
2023-04-13T20:22:02.428Z,98536.38
2023-04-13T20:24:39.467Z,98522.22
2023-04-13T20:27:19.753Z,98524.72
2023-04-13T20:29:52.094Z,98508.38
2023-04-13T20:32:21.498Z,98514.69
2023-04-13T20:34:56.266Z,98506.50
2023-04-13T20:37:27.082Z,98494.09
2023-04-13T20:40:02.081Z,98501.31
2023-04-13T20:42:34.585Z,98492.50
2023-04-13T20:45:20.848Z,98496.88
2023-04-13T20:47:53.365Z,98497.34
2023-04-13T20:50:24.338Z,98505.72
2023-04-13T20:53:02.425Z,98501.56
2023-04-13T20:55:32.442Z,98504.16
2023-04-13T20:58:06.313Z,98495.84
2023-04-13T21:00:35.979Z,98493.19
2023-04-13T21:03:05.293Z,98496.78
2023-04-13T21:05:34.789Z,98496.03
2023-04-13T21:08:13.661Z,98488.81
2023-04-13T21:10:43.607Z,98485.25
2023-04-13T21:13:23.662Z,98488.50
2023-04-13T21:15:54.716Z,98487.44
2023-04-13T21:18:25.188Z,98478.50
2023-04-13T21:20:58.017Z,98478.41
2023-04-13T21:23:28.792Z,98477.41
2023-04-13T21:25:58.124Z,98470.81
2023-04-13T21:28:30.161Z,98462.38
2023-04-13T21:31:18.299Z,98465.50
2023-04-13T21:33:48.871Z,98458.56
2023-04-13T21:39:20.940Z,98447.31
2023-04-13T21:41:50.937Z,98454.41
2023-04-13T21:44:29.692Z,98454.38
2023-04-13T21:47:09.823Z,98459.72
2023-04-13T21:49:42.496Z,98451.63
2023-04-13T21:52:18.963Z,98456.59
2023-04-13T21:54:52.559Z,98444.94
2023-04-13T21:57:22.157Z,98437.59
2023-04-13T21:59:51.469Z,98442.13
2023-04-13T22:02:27.150Z,98440.00
2023-04-13T22:04:58.548Z,98433.66
2023-04-13T22:07:41.674Z,98435.13
2023-04-13T22:10:22.576Z,98435.09
2023-04-13T22:12:57.619Z,98435.41
2023-04-13T22:15:27.949Z,98442.97
2023-04-13T22:18:07.715Z,98433.44
2023-04-13T22:20:36.724Z,98422.56
2023-04-13T22:23:06.093Z,98428.03
2023-04-13T22:25:38.777Z,98424.28
2023-04-13T22:28:15.682Z,98423.34
2023-04-13T22:30:52.490Z,98427.66
2023-04-13T22:33:34.162Z,98409.09
2023-04-13T22:36:04.245Z,98398.19
2023-04-13T22:38:34.144Z,98399.00
2023-04-13T22:41:08.081Z,98386.44
2023-04-13T22:43:37.575Z,98387.25
2023-04-13T22:46:08.394Z,98374.81
2023-04-13T22:48:42.537Z,98354.19
2023-04-13T22:51:20.555Z,98347.47
2023-04-13T22:53:51.743Z,98343.13
2023-04-13T22:56:21.259Z,98339.63
2023-04-13T22:58:50.977Z,98343.97
2023-04-13T23:01:22.697Z,98342.22
2023-04-13T23:03:56.101Z,98343.75
2023-04-13T23:06:28.140Z,98335.91
2023-04-13T23:08:57.789Z,98323.00
2023-04-13T23:11:32.183Z,98323.44
2023-04-13T23:14:00.689Z,98328.31
2023-04-13T23:16:30.955Z,98326.88
2023-04-13T23:19:03.702Z,98327.41
2023-04-13T23:21:35.724Z,98334.38
2023-04-13T23:24:07.942Z,98326.09
2023-04-13T23:26:37.072Z,98331.91
2023-04-13T23:29:06.137Z,98331.94
2023-04-13T23:31:35.165Z,98332.69
2023-04-13T23:34:07.456Z,98334.81
2023-04-13T23:36:42.098Z,98335.47
2023-04-13T23:39:15.166Z,98329.88
2023-04-13T23:41:43.424Z,98332.66
2023-04-13T23:44:12.623Z,98344.31
2023-04-13T23:46:46.511Z,98333.41
2023-04-13T23:49:23.370Z,98332.69
2023-04-13T23:51:55.135Z,98325.75
2023-04-13T23:54:25.718Z,98315.34
2023-04-13T23:56:54.967Z,98303.97
2023-04-13T23:59:27.303Z,98298.94
